Список аэропортов
Фактическая погода:

15 августа, 23:00
Температура: +24°C (+24.0*)
Ветер: сев.-восточный 3 м/с
Давление: *758 мм
Без существ. явл.
Время (МСК)Темп. СВетерВлажностьДавлениеОблачностьОсадки
21:00+30СВ, 3 м/с29%1012 гПаясно
22:00+28СВ, 3 м/с32%1012 гПаясно
23:00+28СВ, 3 м/с35%1011 гПаясно
16 августа
00:00+26СВ, 3 м/с39%1011 гПаясно
01:00+25СВ, 3 м/с44%1011 гПаясно
02:00+24СВ, 3 м/с48%1011 гПаясно
03:00+24С, 3 м/с50%1011 гПаясно
04:00+23С, 4 м/с50%1011 гПаясно
05:00+23С, 4 м/с52%1011 гПаясно
06:00+22С, 4 м/с54%1011 гПаясно
07:00+23СВ, 5 м/с51%1011 гПаясно
08:00+24СВ, 7 м/с44%1011 гПаясно
09:00+26СВ, 7 м/с36%1011 гПаясно
10:00+29СВ, 7 м/с30%1011 гПаясно
11:00+30СВ, 8 м/с28%1010 гПаясно
12:00+32СВ, 8 м/с26%1010 гПаясно
13:00+33СВ, 8 м/с24%1010 гПаясно
14:00+33СВ, 7 м/с22%1009 гПаясно
15:00+34СВ, 7 м/с22%1009 гПаясно
16:00+34СВ, 7 м/с22%1009 гПаоблачно
17:00+34СВ, 6 м/с24%1009 гПаоблачно
18:00+33СВ, 6 м/с26%1009 гПаоблачно
19:00+32СВ, 5 м/с28%1008 гПаоблачно
20:00+31СВ, 4 м/с30%1009 гПаоблачно
21:00+30С, 4 м/с32%1009 гПаясно
22:00+29С, 4 м/с33%1009 гПаясно
23:00+29С, 4 м/с35%1009 гПаясно
17 августа
00:00+28С, 4 м/с37%1009 гПаясно
01:00+27СВ, 4 м/с39%1009 гПаясно
02:00+27СВ, 4 м/с43%1009 гПаясно
03:00+26СВ, 3 м/с47%1010 гПаясно
04:00+25СВ, 2 м/с50%1010 гПаясно
05:00+24СВ, 1 м/с57%1011 гПаясно
06:00+23С, 2 м/с59%1011 гПаясно
07:00+24С, 3 м/с52%1010 гПаясно
08:00+26СВ, 5 м/с46%1010 гПаясно
09:00+27СВ, 5 м/с44%1011 гПаясно
10:00+29СВ, 5 м/с39%1010 гПаясно
11:00+30СВ, 5 м/с34%1010 гПаясно
12:00+32СВ, 6 м/с31%1010 гПаясно
13:00+33СВ, 6 м/с27%1009 гПаясно
14:00+34СВ, 6 м/с24%1009 гПаясно
15:00+34СВ, 6 м/с22%1008 гПаясно
16:00+34СВ, 7 м/с19%1008 гПаясно
17:00+34СВ, 7 м/с17%1008 гПаясно
18:00+33СВ, 7 м/с17%1008 гПаясно
19:00+32СВ, 5 м/с17%1008 гПаясно
20:00+31С, 4 м/с18%1009 гПаясно
21:00+30С, 4 м/с20%1009 гПаясно